This is the latest recevied weather packets stored in our database for station/object BMCB-19. If no packets are shown the sender has not sent any weather packets the latest 10 day(s).
| Time | Temp. | Humidity | Pressure | Rain* | Wind** | Luminosity | Snow |
|---|---|---|---|---|---|---|---|
| 1777204860 | 15.56° C | 55% | 1025.5 hPa | 0 mm | - | 104 W/m² | - |
| 1777200659 | 14.44° C | 58% | 1025.7 hPa | 0 mm | - | 100 W/m² | - |
| 1777197059 | 13.33° C | 62% | 1025.9 hPa | 0 mm | - | 906 W/m² | - |
| 1777195860 | 12.78° C | 63% | 1025.9 hPa | 0 mm | - | 885 W/m² | - |
| 1777194059 | 12.22° C | 67% | 1026 hPa | 0 mm | - | 812 W/m² | - |
| 1777188657 | 9.44° C | 73% | 1026.3 hPa | 0 mm | - | 567 W/m² | - |
| 1777186258 | 7.22° C | 77% | 1026.3 hPa | 0 mm | - | 408 W/m² | - |
| 1777185057 | 6.67° C | 78% | 1026.4 hPa | 0 mm | - | 326 W/m² | - |
| 1777180856 | 3.89° C | 79% | 1026.2 hPa | 0 mm | - | 86 W/m² | - |
| 1777178459 | 3.33° C | 79% | 1025.9 hPa | 0 mm | - | 8 W/m² | - |
| 1777173661 | 3.89° C | 75% | 1025.4 hPa | 0 mm | - | 0 W/m² | - |
| 1777173055 | 3.89° C | 75% | 1025.3 hPa | 0 mm | - | 0 W/m² | - |
| 1777171857 | 3.89° C | 76% | 1025.2 hPa | 0 mm | - | 0 W/m² | - |
| 1777169459 | 4.44° C | 73% | 1025.2 hPa | 0 mm | - | 0 W/m² | - |
| 1777168259 | 5° C | 72% | 1025.1 hPa | 0 mm | - | 0 W/m² | - |
| 1777166458 | 5° C | 70% | 1024.9 hPa | 0 mm | - | 0 W/m² | - |
| 1777161057 | 6.67° C | 66% | 1024.7 hPa | 0 mm | - | 0 W/m² | - |
| 1777155060 | 9.44° C | 57% | 1023.9 hPa | 0 mm | - | 0 W/m² | - |
| 1777148470 | 11.67° C | 39% | 1023.1 hPa | 0 mm | - | 0 W/m² | - |
| 1777147879 | 12.22° C | 38% | 1023 hPa | 0 mm | - | 0 W/m² | - |
| 1777145465 | 12.22° C | 43% | 1022.6 hPa | 0 mm | - | 0 W/m² | - |
| 1777144266 | 12.78° C | 39% | 1022.4 hPa | 0 mm | - | 0 W/m² | - |
| 1777143064 | 12.78° C | 40% | 1022.1 hPa | 0 mm | - | 12 W/m² | - |
| 1777140661 | 13.33° C | 40% | 1022 hPa | 0 mm | - | 37 W/m² | - |
| 1777138862 | 15° C | 31% | 1021.7 hPa | 0 mm | - | 65 W/m² | - |
* Rain latest hour (hover to see other rain measurements)
** Current wind speed in m/s (hover to see current wind gust speed)